createdAt,value
2017-09-28T00:00:02.699Z,1021.71
2017-09-28T00:05:02.712Z,1021.75
2017-09-28T00:10:03.342Z,1021.73
2017-09-28T00:15:02.748Z,1021.69
2017-09-28T00:20:03.288Z,1021.61
2017-09-28T00:25:02.642Z,1021.67
2017-09-28T00:30:03.053Z,1021.64
2017-09-28T00:35:03.444Z,1021.62
2017-09-28T00:40:02.961Z,1021.58
2017-09-28T00:45:03.429Z,1021.57
2017-09-28T00:50:02.872Z,1021.57
2017-09-28T00:55:03.260Z,1021.59
2017-09-28T01:00:02.814Z,1021.59
2017-09-28T01:05:03.208Z,1021.55
2017-09-28T01:10:02.718Z,1021.57
2017-09-28T01:15:03.261Z,1021.63
2017-09-28T01:20:02.798Z,1021.56
2017-09-28T01:25:03.197Z,1021.48
2017-09-28T01:30:02.703Z,1021.44
2017-09-28T01:35:03.037Z,1021.43
2017-09-28T01:40:03.589Z,1021.45
2017-09-28T01:45:03.021Z,1021.37
2017-09-28T01:50:03.572Z,1021.41
2017-09-28T01:55:03.007Z,1021.38
2017-09-28T02:00:03.532Z,1021.3
2017-09-28T02:05:03.013Z,1021.26
2017-09-28T02:10:03.456Z,1021.28
2017-09-28T02:15:02.967Z,1021.26
2017-09-28T02:20:03.290Z,1021.31
2017-09-28T02:25:02.784Z,1021.29
2017-09-28T02:30:03.345Z,1021.27
2017-09-28T02:35:02.802Z,1021.28
2017-09-28T02:40:03.389Z,1021.27
2017-09-28T02:45:02.888Z,1021.27
2017-09-28T02:50:03.353Z,1021.35
2017-09-28T02:55:02.709Z,1021.35
2017-09-28T03:00:03.198Z,1021.35
2017-09-28T03:05:03.548Z,1021.35
2017-09-28T03:10:02.977Z,1021.18
2017-09-28T03:15:03.314Z,1021.15
2017-09-28T03:20:02.739Z,1021.27
2017-09-28T03:25:03.266Z,1021.36
2017-09-28T03:30:03.646Z,1021.33
2017-09-28T03:35:03.043Z,1021.34
2017-09-28T03:40:03.611Z,1021.2
2017-09-28T03:45:02.975Z,1021.08
2017-09-28T03:50:03.302Z,1021.22
2017-09-28T03:55:02.707Z,1021.25
2017-09-28T04:00:03.177Z,1021.21
2017-09-28T04:05:03.584Z,1021.07
2017-09-28T04:10:02.940Z,1020.93
2017-09-28T04:15:03.448Z,1020.97
2017-09-28T04:20:02.908Z,1020.96
2017-09-28T04:25:03.269Z,1021
2017-09-28T04:30:02.999Z,1021.06
2017-09-28T04:35:03.447Z,1021.2
2017-09-28T04:40:02.815Z,1021.12
2017-09-28T04:45:03.345Z,1021.11
2017-09-28T04:50:02.763Z,1021.14
2017-09-28T04:55:03.253Z,1021.11
2017-09-28T05:00:02.664Z,1021.04
2017-09-28T05:05:03.025Z,1020.91
2017-09-28T05:10:03.418Z,1020.99
2017-09-28T05:15:02.918Z,1021
2017-09-28T05:20:03.432Z,1021.03
2017-09-28T05:25:02.894Z,1020.95
2017-09-28T05:30:03.487Z,1020.95
2017-09-28T05:35:02.913Z,1021.05
2017-09-28T05:40:03.339Z,1021.05
2017-09-28T05:45:02.677Z,1021.18
2017-09-28T05:50:03.150Z,1021.13
2017-09-28T05:55:03.612Z,1021.16
2017-09-28T06:00:02.991Z,1021.22
2017-09-28T06:05:03.459Z,1021.28
2017-09-28T06:10:02.973Z,1021.28
2017-09-28T06:15:03.325Z,1021.31
2017-09-28T06:20:02.739Z,1021.35
2017-09-28T06:25:03.221Z,1021.42
2017-09-28T06:30:03.589Z,1021.42
2017-09-28T06:35:03.081Z,1021.43
2017-09-28T06:40:03.454Z,1021.37
2017-09-28T06:45:02.928Z,1021.55
2017-09-28T06:50:03.466Z,1021.6
2017-09-28T06:55:02.986Z,1021.67
2017-09-28T07:00:03.359Z,1021.72
2017-09-28T07:05:02.831Z,1021.72
2017-09-28T07:10:03.293Z,1021.79
2017-09-28T07:15:02.712Z,1021.77
2017-09-28T07:20:03.140Z,1021.76
2017-09-28T07:25:02.672Z,1021.66
2017-09-28T07:30:03.173Z,1021.69
2017-09-28T07:35:02.671Z,1021.7
2017-09-28T07:40:03.199Z,1021.75
2017-09-28T07:45:03.625Z,1021.85
2017-09-28T07:50:03.119Z,1021.94
2017-09-28T07:55:03.635Z,1021.93
2017-09-28T08:00:02.974Z,1021.89
2017-09-28T08:05:03.377Z,1021.81
2017-09-28T08:10:02.880Z,1021.9
2017-09-28T08:15:03.335Z,1021.83
2017-09-28T08:20:02.734Z,1021.81
2017-09-28T08:25:03.255Z,1021.76
2017-09-28T08:30:02.716Z,1021.75
2017-09-28T08:35:03.201Z,1021.77
2017-09-28T08:40:02.622Z,1021.74
2017-09-28T08:45:03.032Z,1021.72
2017-09-28T08:50:03.644Z,1021.84
2017-09-28T08:55:03.090Z,1021.87
2017-09-28T09:00:03.514Z,1022.06
2017-09-28T09:05:02.924Z,1022.09
2017-09-28T09:10:03.470Z,1022.14
2017-09-28T09:15:02.907Z,1022.14
2017-09-28T09:20:03.447Z,1022.07
2017-09-28T09:25:02.870Z,1022.06
2017-09-28T09:30:03.359Z,1021.88
2017-09-28T09:35:02.790Z,1021.79
2017-09-28T09:40:03.283Z,1021.66
2017-09-28T09:45:02.685Z,1021.63
2017-09-28T09:50:03.266Z,1021.8
2017-09-28T09:55:02.787Z,1021.67
2017-09-28T10:00:03.320Z,1021.64
2017-09-28T10:05:02.708Z,1021.57
2017-09-28T10:10:03.172Z,1021.6
2017-09-28T10:15:03.298Z,1021.63
2017-09-28T10:20:03.088Z,1021.82
2017-09-28T10:25:03.638Z,1021.9
2017-09-28T10:30:03.138Z,1021.94
2017-09-28T10:35:03.601Z,1021.97
2017-09-28T10:40:03.080Z,1021.93
2017-09-28T10:45:03.505Z,1021.97
2017-09-28T10:50:02.980Z,1022.04
2017-09-28T10:55:03.371Z,1022.12
2017-09-28T11:00:02.888Z,1022.05
2017-09-28T11:05:03.414Z,1022.06
2017-09-28T11:10:02.984Z,1022.03
2017-09-28T11:15:03.461Z,1021.85
2017-09-28T11:20:02.875Z,1021.75
2017-09-28T11:25:03.343Z,1021.75
2017-09-28T11:30:02.746Z,1021.72
2017-09-28T11:35:03.244Z,1021.67
2017-09-28T11:40:02.827Z,1021.7
2017-09-28T11:45:03.338Z,1021.6
2017-09-28T11:50:02.985Z,1021.61
2017-09-28T11:55:03.414Z,1021.6
2017-09-28T12:00:02.799Z,1021.59
2017-09-28T12:05:03.344Z,1021.52
2017-09-28T12:10:02.806Z,1021.6
2017-09-28T12:15:03.150Z,1021.55
2017-09-28T12:20:03.557Z,1021.62
2017-09-28T12:25:03.147Z,1021.59
2017-09-28T12:30:02.678Z,1021.61
2017-09-28T12:35:03.125Z,1021.62
2017-09-28T12:40:03.657Z,1021.57
2017-09-28T12:45:03.223Z,1021.51
2017-09-28T12:50:02.711Z,1021.61
2017-09-28T12:55:03.252Z,1021.65
2017-09-28T13:00:02.720Z,1021.61
2017-09-28T13:05:03.190Z,1021.6
2017-09-28T13:10:02.788Z,1021.57
2017-09-28T13:15:03.347Z,1021.63
2017-09-28T13:20:02.885Z,1021.64
2017-09-28T13:25:03.395Z,1021.66
2017-09-28T13:30:02.737Z,1021.6
2017-09-28T13:35:03.215Z,1021.65
2017-09-28T13:40:02.750Z,1021.6
2017-09-28T13:45:03.143Z,1021.6
2017-09-28T13:50:03.552Z,1021.55
2017-09-28T13:55:02.854Z,1021.55
2017-09-28T14:00:03.202Z,1021.56
2017-09-28T14:05:03.513Z,1021.5
2017-09-28T14:10:02.952Z,1021.46
2017-09-28T14:15:03.365Z,1021.45
2017-09-28T14:20:02.720Z,1021.46
2017-09-28T14:25:03.129Z,1021.41
2017-09-28T14:30:03.593Z,1021.46
2017-09-28T14:35:03.161Z,1021.45
2017-09-28T14:40:02.702Z,1021.44
2017-09-28T14:45:03.210Z,1021.42
2017-09-28T14:50:02.671Z,1021.45
2017-09-28T14:55:03.212Z,1021.42
2017-09-28T15:00:03.533Z,1021.43
2017-09-28T15:05:03.094Z,1021.39
2017-09-28T15:10:03.644Z,1021.34
2017-09-28T15:15:03.162Z,1021.35
2017-09-28T15:20:03.583Z,1021.38
2017-09-28T15:25:03.053Z,1021.3
2017-09-28T15:30:03.506Z,1021.28
2017-09-28T15:35:03.014Z,1021.26
2017-09-28T15:40:03.536Z,1021.28
2017-09-28T15:45:02.905Z,1021.29
2017-09-28T15:50:03.324Z,1021.3
2017-09-28T15:55:02.776Z,1021.33
2017-09-28T16:00:03.160Z,1021.31
2017-09-28T16:05:02.752Z,1021.34
2017-09-28T16:10:03.295Z,1021.28
2017-09-28T16:15:02.777Z,1021.26
2017-09-28T16:20:03.381Z,1021.44
2017-09-28T16:25:02.706Z,1021.39
2017-09-28T16:30:03.184Z,1021.38
2017-09-28T16:35:02.664Z,1021.37
2017-09-28T16:40:03.263Z,1021.31
2017-09-28T16:45:02.933Z,1021.32
2017-09-28T16:50:03.396Z,1021.36
2017-09-28T16:55:02.871Z,1021.34
2017-09-28T17:00:03.252Z,1021.29
2017-09-28T17:05:02.644Z,1021.35
2017-09-28T17:10:03.180Z,1021.33
2017-09-28T17:15:02.620Z,1021.31
2017-09-28T17:20:03.172Z,1021.3
2017-09-28T17:25:02.667Z,1021.4
2017-09-28T17:30:03.065Z,1021.42
2017-09-28T17:35:03.598Z,1021.39
2017-09-28T17:40:03.066Z,1021.45
2017-09-28T17:45:03.435Z,1021.43
2017-09-28T17:50:02.975Z,1021.47
2017-09-28T17:55:03.530Z,1021.45
2017-09-28T18:00:03.082Z,1021.47
2017-09-28T18:05:02.697Z,1021.49
2017-09-28T18:10:03.129Z,1021.51
2017-09-28T18:15:02.706Z,1021.6
2017-09-28T18:20:03.056Z,1021.64
2017-09-28T18:25:03.561Z,1021.59
2017-09-28T18:30:02.881Z,1021.63
2017-09-28T18:35:03.330Z,1021.7
2017-09-28T18:40:02.665Z,1021.68
2017-09-28T18:45:03.251Z,1021.77
2017-09-28T18:50:02.776Z,1021.74
2017-09-28T18:55:03.198Z,1021.9
2017-09-28T19:00:02.676Z,1021.85
2017-09-28T19:05:03.109Z,1021.93
2017-09-28T19:10:03.613Z,1021.85
2017-09-28T19:15:02.967Z,1021.93
2017-09-28T19:20:03.502Z,1021.87
2017-09-28T19:25:02.986Z,1021.96
2017-09-28T19:30:03.391Z,1022
2017-09-28T19:35:02.976Z,1022.01
2017-09-28T19:40:03.443Z,1022
2017-09-28T19:45:02.827Z,1021.98
2017-09-28T19:50:03.254Z,1022.06
2017-09-28T19:55:02.748Z,1021.99
2017-09-28T20:00:03.238Z,1021.98
2017-09-28T20:05:02.787Z,1021.99
2017-09-28T20:10:03.247Z,1021.99
2017-09-28T20:15:02.692Z,1021.96
2017-09-28T20:20:03.089Z,1021.97
2017-09-28T20:25:03.455Z,1021.97
2017-09-28T20:30:02.975Z,1021.89
2017-09-28T20:35:03.394Z,1021.96
2017-09-28T20:40:02.972Z,1021.96
2017-09-28T20:45:03.619Z,1021.91
2017-09-28T20:50:03.093Z,1021.97
2017-09-28T20:55:03.459Z,1021.93
2017-09-28T21:00:03.015Z,1021.98
2017-09-28T21:05:03.591Z,1021.98
2017-09-28T21:10:03.023Z,1022.04
2017-09-28T21:15:03.578Z,1022.07
2017-09-28T21:20:02.964Z,1022.11
2017-09-28T21:25:03.470Z,1022.14
2017-09-28T21:30:03.016Z,1022.14
2017-09-28T21:35:03.553Z,1022.14
2017-09-28T21:40:03.042Z,1022.06
2017-09-28T21:45:03.589Z,1022.08
2017-09-28T21:50:03.131Z,1022.11
2017-09-28T21:55:03.563Z,1022.05
2017-09-28T22:00:02.967Z,1022.07
2017-09-28T22:05:03.383Z,1021.97
2017-09-28T22:10:02.844Z,1022.01
2017-09-28T22:20:03.017Z,1022.01
2017-09-28T22:25:03.451Z,1021.96
2017-09-28T22:30:02.801Z,1022
2017-09-28T22:35:03.295Z,1022.01
2017-09-28T22:40:02.913Z,1022.01
2017-09-28T22:45:03.427Z,1021.89
2017-09-28T22:50:03.076Z,1021.95
2017-09-28T22:55:02.657Z,1021.88
2017-09-28T23:00:03.629Z,1021.86
2017-09-28T23:05:03.008Z,1021.82
2017-09-28T23:10:03.501Z,1021.81
2017-09-28T23:15:02.847Z,1021.75
2017-09-28T23:20:03.274Z,1021.79
2017-09-28T23:25:02.720Z,1021.72
2017-09-28T23:30:03.091Z,1021.7
2017-09-28T23:35:03.513Z,1021.7
2017-09-28T23:40:03.101Z,1021.6
2017-09-28T23:45:03.592Z,1021.53
2017-09-28T23:50:03.084Z,1021.46
2017-09-28T23:55:03.504Z,1021.41
